Terminal Aerodrome Forecast
Issued by NWS

Home | Current Version | Previous Version | Text Only | Print | Product List | Glossary On
Versions: 1 2 3 4 5 6 7 8 9 10 11 12 13 14 15 16 17 18 19 20 21 22 23 24 25 26 27 28 29
000
FTUS44 KOUN 220520
TAFHBR
TAF
KHBR 220520Z 2206/2306 03012KT 2SM -FZDZ BR OVC004
     FM221300 05006KT 4SM -FZRA BR OVC007
     FM222000 15007KT P6SM OVC015=

USA.gov is the U.S. government's official web portal to all federal, state and local government web resources and services.